sensor_id;sensor_type;location;lat;lon;timestamp;P1;durP1;ratioP1;P2;durP2;ratioP2
21235;SDS011;10775;42.678;26.324;2022-10-16T00:01:25;4.35;;;2.50;;
21235;SDS011;10775;42.678;26.324;2022-10-16T00:03:53;3.20;;;2.50;;
21235;SDS011;10775;42.678;26.324;2022-10-16T00:06:24;4.55;;;3.00;;
21235;SDS011;10775;42.678;26.324;2022-10-16T00:08:52;4.68;;;2.63;;
21235;SDS011;10775;42.678;26.324;2022-10-16T00:11:21;3.88;;;2.67;;
21235;SDS011;10775;42.678;26.324;2022-10-16T00:13:54;4.75;;;2.80;;
21235;SDS011;10775;42.678;26.324;2022-10-16T00:16:21;4.78;;;2.30;;
21235;SDS011;10775;42.678;26.324;2022-10-16T00:18:46;3.83;;;2.45;;
21235;SDS011;10775;42.678;26.324;2022-10-16T00:21:18;3.20;;;2.47;;
21235;SDS011;10775;42.678;26.324;2022-10-16T00:23:46;3.20;;;2.30;;
21235;SDS011;10775;42.678;26.324;2022-10-16T00:26:16;3.42;;;2.63;;
21235;SDS011;10775;42.678;26.324;2022-10-16T00:28:47;4.82;;;2.80;;
21235;SDS011;10775;42.678;26.324;2022-10-16T00:31:16;3.20;;;2.63;;
21235;SDS011;10775;42.678;26.324;2022-10-16T00:33:43;4.47;;;2.60;;
21235;SDS011;10775;42.678;26.324;2022-10-16T00:36:10;3.80;;;2.53;;
21235;SDS011;10775;42.678;26.324;2022-10-16T00:38:38;3.20;;;2.67;;
21235;SDS011;10775;42.678;26.324;2022-10-16T00:41:04;5.05;;;2.67;;
21235;SDS011;10775;42.678;26.324;2022-10-16T00:46:15;3.88;;;2.50;;
21235;SDS011;10775;42.678;26.324;2022-10-16T00:48:48;4.15;;;2.78;;
21235;SDS011;10775;42.678;26.324;2022-10-16T00:51:28;3.95;;;2.72;;
21235;SDS011;10775;42.678;26.324;2022-10-16T00:53:57;4.75;;;2.63;;
21235;SDS011;10775;42.678;26.324;2022-10-16T00:56:24;4.75;;;2.85;;
21235;SDS011;10775;42.678;26.324;2022-10-16T00:58:51;5.50;;;3.22;;
21235;SDS011;10775;42.678;26.324;2022-10-16T01:01:17;4.40;;;2.65;;
21235;SDS011;10775;42.678;26.324;2022-10-16T01:03:42;3.65;;;2.28;;
21235;SDS011;10775;42.678;26.324;2022-10-16T01:08:47;3.25;;;2.40;;
21235;SDS011;10775;42.678;26.324;2022-10-16T01:11:41;3.67;;;2.30;;
21235;SDS011;10775;42.678;26.324;2022-10-16T01:14:47;2.53;;;2.15;;
21235;SDS011;10775;42.678;26.324;2022-10-16T01:18:04;2.85;;;2.40;;
21235;SDS011;10775;42.678;26.324;2022-10-16T01:20:12;4.15;;;2.35;;
21235;SDS011;10775;42.678;26.324;2022-10-16T01:25:18;5.82;;;2.50;;
21235;SDS011;10775;42.678;26.324;2022-10-16T01:27:55;5.07;;;2.40;;
21235;SDS011;10775;42.678;26.324;2022-10-16T01:30:27;3.58;;;2.70;;
21235;SDS011;10775;42.678;26.324;2022-10-16T01:33:00;3.45;;;2.05;;
21235;SDS011;10775;42.678;26.324;2022-10-16T01:35:58;2.92;;;2.20;;
21235;SDS011;10775;42.678;26.324;2022-10-16T01:38:38;2.95;;;2.25;;
21235;SDS011;10775;42.678;26.324;2022-10-16T01:41:11;5.07;;;2.60;;
21235;SDS011;10775;42.678;26.324;2022-10-16T01:43:49;4.43;;;2.33;;
21235;SDS011;10775;42.678;26.324;2022-10-16T01:46:23;3.45;;;2.60;;
21235;SDS011;10775;42.678;26.324;2022-10-16T01:48:50;3.78;;;2.80;;
21235;SDS011;10775;42.678;26.324;2022-10-16T01:51:17;5.57;;;2.85;;
21235;SDS011;10775;42.678;26.324;2022-10-16T01:53:50;4.90;;;3.40;;
21235;SDS011;10775;42.678;26.324;2022-10-16T01:56:21;3.83;;;3.35;;
21235;SDS011;10775;42.678;26.324;2022-10-16T01:59:09;4.93;;;3.22;;
21235;SDS011;10775;42.678;26.324;2022-10-16T02:01:38;3.88;;;2.40;;
21235;SDS011;10775;42.678;26.324;2022-10-16T02:04:11;3.63;;;2.78;;
21235;SDS011;10775;42.678;26.324;2022-10-16T02:06:43;6.35;;;3.50;;
21235;SDS011;10775;42.678;26.324;2022-10-16T02:09:09;4.18;;;2.63;;
21235;SDS011;10775;42.678;26.324;2022-10-16T02:11:35;5.47;;;4.05;;
21235;SDS011;10775;42.678;26.324;2022-10-16T02:14:05;3.40;;;2.63;;
21235;SDS011;10775;42.678;26.324;2022-10-16T02:16:35;4.85;;;3.03;;
21235;SDS011;10775;42.678;26.324;2022-10-16T02:19:03;5.28;;;4.10;;
21235;SDS011;10775;42.678;26.324;2022-10-16T02:21:36;4.32;;;2.95;;
21235;SDS011;10775;42.678;26.324;2022-10-16T02:24:30;4.05;;;2.90;;
21235;SDS011;10775;42.678;26.324;2022-10-16T02:27:05;3.47;;;2.50;;
21235;SDS011;10775;42.678;26.324;2022-10-16T02:29:33;6.07;;;4.57;;
21235;SDS011;10775;42.678;26.324;2022-10-16T02:32:06;4.90;;;3.47;;
21235;SDS011;10775;42.678;26.324;2022-10-16T02:34:35;3.90;;;3.13;;
21235;SDS011;10775;42.678;26.324;2022-10-16T02:37:03;4.63;;;3.80;;
21235;SDS011;10775;42.678;26.324;2022-10-16T02:39:33;4.45;;;3.60;;
21235;SDS011;10775;42.678;26.324;2022-10-16T02:42:02;6.20;;;5.15;;
21235;SDS011;10775;42.678;26.324;2022-10-16T02:44:28;7.78;;;4.97;;
21235;SDS011;10775;42.678;26.324;2022-10-16T02:46:53;6.50;;;4.18;;
21235;SDS011;10775;42.678;26.324;2022-10-16T02:49:20;7.72;;;6.07;;
21235;SDS011;10775;42.678;26.324;2022-10-16T02:51:46;7.72;;;5.40;;
21235;SDS011;10775;42.678;26.324;2022-10-16T02:54:12;3.90;;;3.47;;
21235;SDS011;10775;42.678;26.324;2022-10-16T02:56:38;5.38;;;4.70;;
21235;SDS011;10775;42.678;26.324;2022-10-16T02:59:04;4.30;;;3.22;;
21235;SDS011;10775;42.678;26.324;2022-10-16T03:01:29;4.53;;;3.55;;
21235;SDS011;10775;42.678;26.324;2022-10-16T03:03:55;6.20;;;4.97;;
21235;SDS011;10775;42.678;26.324;2022-10-16T03:06:21;7.75;;;5.60;;
21235;SDS011;10775;42.678;26.324;2022-10-16T03:08:48;5.10;;;4.25;;
21235;SDS011;10775;42.678;26.324;2022-10-16T03:11:13;8.40;;;5.93;;
21235;SDS011;10775;42.678;26.324;2022-10-16T03:13:39;5.03;;;2.80;;
21235;SDS011;10775;42.678;26.324;2022-10-16T03:16:05;3.60;;;2.80;;
21235;SDS011;10775;42.678;26.324;2022-10-16T03:18:30;4.97;;;3.45;;
21235;SDS011;10775;42.678;26.324;2022-10-16T03:20:56;4.90;;;3.95;;
21235;SDS011;10775;42.678;26.324;2022-10-16T03:23:22;4.28;;;3.55;;
21235;SDS011;10775;42.678;26.324;2022-10-16T03:25:47;4.90;;;3.72;;
21235;SDS011;10775;42.678;26.324;2022-10-16T03:28:14;4.05;;;2.90;;
21235;SDS011;10775;42.678;26.324;2022-10-16T03:30:40;6.57;;;5.18;;
21235;SDS011;10775;42.678;26.324;2022-10-16T03:33:05;6.75;;;4.55;;
21235;SDS011;10775;42.678;26.324;2022-10-16T03:35:31;5.10;;;4.15;;
21235;SDS011;10775;42.678;26.324;2022-10-16T03:37:58;7.85;;;5.07;;
21235;SDS011;10775;42.678;26.324;2022-10-16T03:40:23;5.07;;;3.72;;
21235;SDS011;10775;42.678;26.324;2022-10-16T03:42:50;5.97;;;4.20;;
21235;SDS011;10775;42.678;26.324;2022-10-16T03:45:16;7.65;;;4.32;;
21235;SDS011;10775;42.678;26.324;2022-10-16T03:47:42;6.40;;;4.50;;
21235;SDS011;10775;42.678;26.324;2022-10-16T03:50:08;8.30;;;4.82;;
21235;SDS011;10775;42.678;26.324;2022-10-16T03:52:34;8.98;;;4.38;;
21235;SDS011;10775;42.678;26.324;2022-10-16T03:54:59;4.78;;;3.92;;
21235;SDS011;10775;42.678;26.324;2022-10-16T03:57:25;4.35;;;3.72;;
21235;SDS011;10775;42.678;26.324;2022-10-16T03:59:52;4.35;;;3.60;;
21235;SDS011;10775;42.678;26.324;2022-10-16T04:02:18;6.07;;;4.05;;
21235;SDS011;10775;42.678;26.324;2022-10-16T04:04:44;8.38;;;4.53;;
21235;SDS011;10775;42.678;26.324;2022-10-16T04:07:09;11.20;;;4.90;;
21235;SDS011;10775;42.678;26.324;2022-10-16T04:09:35;7.38;;;4.57;;
21235;SDS011;10775;42.678;26.324;2022-10-16T04:12:00;6.28;;;4.72;;
21235;SDS011;10775;42.678;26.324;2022-10-16T04:14:26;5.97;;;4.18;;
21235;SDS011;10775;42.678;26.324;2022-10-16T04:16:53;7.72;;;4.20;;
21235;SDS011;10775;42.678;26.324;2022-10-16T04:19:19;7.00;;;4.55;;
21235;SDS011;10775;42.678;26.324;2022-10-16T04:21:45;6.78;;;5.07;;
21235;SDS011;10775;42.678;26.324;2022-10-16T04:24:11;6.28;;;4.60;;
21235;SDS011;10775;42.678;26.324;2022-10-16T04:26:37;8.43;;;5.70;;
21235;SDS011;10775;42.678;26.324;2022-10-16T04:29:03;7.85;;;5.00;;
21235;SDS011;10775;42.678;26.324;2022-10-16T04:31:28;6.25;;;4.72;;
21235;SDS011;10775;42.678;26.324;2022-10-16T04:33:54;8.07;;;5.53;;
21235;SDS011;10775;42.678;26.324;2022-10-16T04:36:20;5.32;;;4.45;;
21235;SDS011;10775;42.678;26.324;2022-10-16T04:38:45;6.97;;;5.30;;
21235;SDS011;10775;42.678;26.324;2022-10-16T04:41:11;9.90;;;5.75;;
21235;SDS011;10775;42.678;26.324;2022-10-16T04:43:37;5.80;;;4.20;;
21235;SDS011;10775;42.678;26.324;2022-10-16T04:46:03;7.90;;;5.60;;
21235;SDS011;10775;42.678;26.324;2022-10-16T04:48:30;6.75;;;4.75;;
21235;SDS011;10775;42.678;26.324;2022-10-16T04:50:56;6.93;;;5.28;;
21235;SDS011;10775;42.678;26.324;2022-10-16T04:53:21;6.22;;;4.63;;
21235;SDS011;10775;42.678;26.324;2022-10-16T04:55:50;6.40;;;4.63;;
21235;SDS011;10775;42.678;26.324;2022-10-16T04:58:16;6.93;;;4.50;;
21235;SDS011;10775;42.678;26.324;2022-10-16T05:00:42;6.95;;;4.28;;
21235;SDS011;10775;42.678;26.324;2022-10-16T05:03:11;7.57;;;4.53;;
21235;SDS011;10775;42.678;26.324;2022-10-16T05:05:41;8.73;;;5.30;;
21235;SDS011;10775;42.678;26.324;2022-10-16T05:08:08;6.72;;;5.13;;
21235;SDS011;10775;42.678;26.324;2022-10-16T05:10:34;8.13;;;5.68;;
21235;SDS011;10775;42.678;26.324;2022-10-16T05:13:01;7.53;;;4.93;;
21235;SDS011;10775;42.678;26.324;2022-10-16T05:15:27;9.02;;;5.28;;
21235;SDS011;10775;42.678;26.324;2022-10-16T05:17:56;7.13;;;4.68;;
21235;SDS011;10775;42.678;26.324;2022-10-16T05:20:22;8.63;;;5.75;;
21235;SDS011;10775;42.678;26.324;2022-10-16T05:22:48;8.13;;;5.32;;
21235;SDS011;10775;42.678;26.324;2022-10-16T05:25:14;7.57;;;5.65;;
21235;SDS011;10775;42.678;26.324;2022-10-16T05:27:40;7.15;;;5.03;;
21235;SDS011;10775;42.678;26.324;2022-10-16T05:30:06;7.40;;;5.22;;
21235;SDS011;10775;42.678;26.324;2022-10-16T05:32:32;5.38;;;4.55;;
21235;SDS011;10775;42.678;26.324;2022-10-16T05:34:59;8.07;;;5.57;;
21235;SDS011;10775;42.678;26.324;2022-10-16T05:37:30;6.63;;;5.22;;
21235;SDS011;10775;42.678;26.324;2022-10-16T05:39:57;6.18;;;4.43;;
21235;SDS011;10775;42.678;26.324;2022-10-16T05:42:22;7.00;;;4.82;;
21235;SDS011;10775;42.678;26.324;2022-10-16T05:44:50;7.68;;;5.78;;
21235;SDS011;10775;42.678;26.324;2022-10-16T05:47:16;6.65;;;4.90;;
21235;SDS011;10775;42.678;26.324;2022-10-16T05:49:42;9.68;;;5.72;;
21235;SDS011;10775;42.678;26.324;2022-10-16T05:52:08;7.25;;;5.15;;
21235;SDS011;10775;42.678;26.324;2022-10-16T05:54:33;5.95;;;4.82;;
21235;SDS011;10775;42.678;26.324;2022-10-16T05:57:00;9.07;;;4.88;;
21235;SDS011;10775;42.678;26.324;2022-10-16T05:59:27;8.75;;;5.15;;
21235;SDS011;10775;42.678;26.324;2022-10-16T06:01:53;6.75;;;5.10;;
21235;SDS011;10775;42.678;26.324;2022-10-16T06:04:18;7.22;;;5.05;;
21235;SDS011;10775;42.678;26.324;2022-10-16T06:06:44;8.85;;;5.30;;
21235;SDS011;10775;42.678;26.324;2022-10-16T06:09:11;7.03;;;4.93;;
21235;SDS011;10775;42.678;26.324;2022-10-16T06:11:38;7.55;;;5.28;;
21235;SDS011;10775;42.678;26.324;2022-10-16T06:14:03;10.63;;;5.07;;
21235;SDS011;10775;42.678;26.324;2022-10-16T06:16:34;6.43;;;4.93;;
21235;SDS011;10775;42.678;26.324;2022-10-16T06:19:04;7.10;;;4.68;;
21235;SDS011;10775;42.678;26.324;2022-10-16T06:21:33;6.13;;;4.63;;
21235;SDS011;10775;42.678;26.324;2022-10-16T06:24:00;7.15;;;4.85;;
21235;SDS011;10775;42.678;26.324;2022-10-16T06:26:27;7.93;;;4.70;;
21235;SDS011;10775;42.678;26.324;2022-10-16T06:28:55;7.90;;;4.68;;
21235;SDS011;10775;42.678;26.324;2022-10-16T06:31:22;6.55;;;4.45;;
21235;SDS011;10775;42.678;26.324;2022-10-16T06:36:18;5.65;;;4.45;;
21235;SDS011;10775;42.678;26.324;2022-10-16T06:38:45;5.13;;;4.18;;
21235;SDS011;10775;42.678;26.324;2022-10-16T06:41:11;5.70;;;4.40;;
21235;SDS011;10775;42.678;26.324;2022-10-16T06:43:38;6.18;;;4.05;;
21235;SDS011;10775;42.678;26.324;2022-10-16T06:46:04;8.30;;;4.47;;
21235;SDS011;10775;42.678;26.324;2022-10-16T06:48:36;6.63;;;4.80;;
21235;SDS011;10775;42.678;26.324;2022-10-16T06:51:06;6.65;;;4.32;;
21235;SDS011;10775;42.678;26.324;2022-10-16T06:56:08;6.25;;;4.10;;
21235;SDS011;10775;42.678;26.324;2022-10-16T06:58:40;6.45;;;5.00;;
21235;SDS011;10775;42.678;26.324;2022-10-16T07:01:07;8.63;;;5.07;;
21235;SDS011;10775;42.678;26.324;2022-10-16T07:03:33;7.05;;;4.80;;
21235;SDS011;10775;42.678;26.324;2022-10-16T07:06:02;6.80;;;4.40;;
21235;SDS011;10775;42.678;26.324;2022-10-16T07:08:33;6.07;;;4.38;;
21235;SDS011;10775;42.678;26.324;2022-10-16T07:11:00;8.13;;;4.85;;
21235;SDS011;10775;42.678;26.324;2022-10-16T07:13:37;6.55;;;4.47;;
21235;SDS011;10775;42.678;26.324;2022-10-16T07:16:14;8.13;;;4.43;;
21235;SDS011;10775;42.678;26.324;2022-10-16T07:18:42;5.85;;;4.00;;
21235;SDS011;10775;42.678;26.324;2022-10-16T07:21:11;5.88;;;3.97;;
21235;SDS011;10775;42.678;26.324;2022-10-16T07:23:39;5.95;;;4.20;;
21235;SDS011;10775;42.678;26.324;2022-10-16T07:26:07;5.57;;;3.92;;
21235;SDS011;10775;42.678;26.324;2022-10-16T07:28:34;4.78;;;3.85;;
21235;SDS011;10775;42.678;26.324;2022-10-16T07:31:10;7.15;;;4.30;;
21235;SDS011;10775;42.678;26.324;2022-10-16T07:33:39;7.40;;;4.28;;
21235;SDS011;10775;42.678;26.324;2022-10-16T07:36:08;5.47;;;3.83;;
21235;SDS011;10775;42.678;26.324;2022-10-16T07:38:34;5.78;;;4.18;;
21235;SDS011;10775;42.678;26.324;2022-10-16T07:41:00;5.47;;;3.97;;
21235;SDS011;10775;42.678;26.324;2022-10-16T07:43:27;6.13;;;4.15;;
21235;SDS011;10775;42.678;26.324;2022-10-16T07:45:54;5.35;;;3.72;;
21235;SDS011;10775;42.678;26.324;2022-10-16T07:48:21;4.28;;;3.63;;
21235;SDS011;10775;42.678;26.324;2022-10-16T07:50:51;6.07;;;3.88;;
21235;SDS011;10775;42.678;26.324;2022-10-16T07:53:18;8.73;;;3.97;;
21235;SDS011;10775;42.678;26.324;2022-10-16T07:55:44;5.70;;;4.13;;
21235;SDS011;10775;42.678;26.324;2022-10-16T07:58:12;5.20;;;4.00;;
21235;SDS011;10775;42.678;26.324;2022-10-16T08:00:39;6.47;;;3.75;;
21235;SDS011;10775;42.678;26.324;2022-10-16T08:03:04;5.22;;;3.58;;
21235;SDS011;10775;42.678;26.324;2022-10-16T08:05:32;5.57;;;3.70;;
21235;SDS011;10775;42.678;26.324;2022-10-16T08:07:58;6.03;;;3.75;;
21235;SDS011;10775;42.678;26.324;2022-10-16T08:10:25;5.40;;;3.65;;
21235;SDS011;10775;42.678;26.324;2022-10-16T08:12:53;5.23;;;3.60;;
21235;SDS011;10775;42.678;26.324;2022-10-16T08:15:20;6.40;;;3.47;;
21235;SDS011;10775;42.678;26.324;2022-10-16T08:18:03;7.05;;;3.80;;
21235;SDS011;10775;42.678;26.324;2022-10-16T08:20:32;6.95;;;3.42;;
21235;SDS011;10775;42.678;26.324;2022-10-16T08:22:58;4.68;;;3.05;;
21235;SDS011;10775;42.678;26.324;2022-10-16T08:25:25;4.15;;;3.30;;
21235;SDS011;10775;42.678;26.324;2022-10-16T08:27:50;3.95;;;3.17;;
21235;SDS011;10775;42.678;26.324;2022-10-16T08:30:19;5.60;;;3.08;;
21235;SDS011;10775;42.678;26.324;2022-10-16T08:32:48;5.88;;;3.53;;
21235;SDS011;10775;42.678;26.324;2022-10-16T08:35:13;6.22;;;3.33;;
21235;SDS011;10775;42.678;26.324;2022-10-16T08:37:40;5.43;;;3.17;;
21235;SDS011;10775;42.678;26.324;2022-10-16T08:40:07;4.78;;;3.08;;
21235;SDS011;10775;42.678;26.324;2022-10-16T08:45:29;6.20;;;3.40;;
21235;SDS011;10775;42.678;26.324;2022-10-16T08:48:06;6.13;;;3.75;;
21235;SDS011;10775;42.678;26.324;2022-10-16T08:50:36;3.92;;;3.00;;
21235;SDS011;10775;42.678;26.324;2022-10-16T08:53:05;5.25;;;3.90;;
21235;SDS011;10775;42.678;26.324;2022-10-16T08:58:10;5.78;;;3.08;;
21235;SDS011;10775;42.678;26.324;2022-10-16T09:01:01;4.70;;;2.97;;
21235;SDS011;10775;42.678;26.324;2022-10-16T09:20:13;4.63;;;3.15;;
21235;SDS011;10775;42.678;26.324;2022-10-16T09:25:43;5.55;;;2.50;;
21235;SDS011;10775;42.678;26.324;2022-10-16T09:28:11;4.30;;;3.08;;
21235;SDS011;10775;42.678;26.324;2022-10-16T09:30:38;3.72;;;2.83;;
21235;SDS011;10775;42.678;26.324;2022-10-16T09:33:05;5.80;;;3.20;;
21235;SDS011;10775;42.678;26.324;2022-10-16T09:35:35;4.82;;;3.13;;
21235;SDS011;10775;42.678;26.324;2022-10-16T09:38:04;3.65;;;2.50;;
21235;SDS011;10775;42.678;26.324;2022-10-16T09:40:31;6.45;;;3.35;;
21235;SDS011;10775;42.678;26.324;2022-10-16T09:43:06;4.20;;;2.95;;
21235;SDS011;10775;42.678;26.324;2022-10-16T09:45:57;3.97;;;2.38;;
21235;SDS011;10775;42.678;26.324;2022-10-16T09:48:33;3.28;;;2.72;;
21235;SDS011;10775;42.678;26.324;2022-10-16T09:51:03;3.90;;;3.03;;
21235;SDS011;10775;42.678;26.324;2022-10-16T09:53:38;4.13;;;2.78;;
21235;SDS011;10775;42.678;26.324;2022-10-16T09:56:11;4.28;;;3.08;;
21235;SDS011;10775;42.678;26.324;2022-10-16T09:58:50;6.45;;;3.08;;
21235;SDS011;10775;42.678;26.324;2022-10-16T10:01:20;4.35;;;2.60;;
21235;SDS011;10775;42.678;26.324;2022-10-16T10:03:55;5.07;;;3.00;;
21235;SDS011;10775;42.678;26.324;2022-10-16T10:06:34;4.00;;;3.17;;
21235;SDS011;10775;42.678;26.324;2022-10-16T10:19:48;9.65;;;3.30;;
21235;SDS011;10775;42.678;26.324;2022-10-16T10:30:59;4.95;;;2.67;;
21235;SDS011;10775;42.678;26.324;2022-10-16T10:33:42;4.88;;;2.60;;
21235;SDS011;10775;42.678;26.324;2022-10-16T10:38:51;6.40;;;2.53;;
21235;SDS011;10775;42.678;26.324;2022-10-16T10:47:01;3.92;;;2.47;;
21235;SDS011;10775;42.678;26.324;2022-10-16T11:04:18;12.25;;;6.03;;
21235;SDS011;10775;42.678;26.324;2022-10-16T11:07:49;7.47;;;3.78;;
21235;SDS011;10775;42.678;26.324;2022-10-16T11:10:18;5.65;;;2.67;;
21235;SDS011;10775;42.678;26.324;2022-10-16T11:12:54;5.22;;;3.55;;
21235;SDS011;10775;42.678;26.324;2022-10-16T11:15:27;5.93;;;3.80;;
21235;SDS011;10775;42.678;26.324;2022-10-16T11:23:36;6.05;;;3.20;;
21235;SDS011;10775;42.678;26.324;2022-10-16T11:26:12;5.10;;;3.35;;
21235;SDS011;10775;42.678;26.324;2022-10-16T11:28:45;3.42;;;2.60;;
21235;SDS011;10775;42.678;26.324;2022-10-16T11:33:59;4.93;;;2.83;;
21235;SDS011;10775;42.678;26.324;2022-10-16T11:39:22;4.47;;;2.67;;
21235;SDS011;10775;42.678;26.324;2022-10-16T11:41:57;4.03;;;2.83;;
21235;SDS011;10775;42.678;26.324;2022-10-16T11:47:38;3.50;;;2.42;;
21235;SDS011;10775;42.678;26.324;2022-10-16T11:50:13;3.97;;;2.33;;
21235;SDS011;10775;42.678;26.324;2022-10-16T11:53:03;5.22;;;2.78;;
21235;SDS011;10775;42.678;26.324;2022-10-16T11:55:48;5.13;;;2.35;;
21235;SDS011;10775;42.678;26.324;2022-10-16T12:09:26;6.72;;;3.40;;
21235;SDS011;10775;42.678;26.324;2022-10-16T12:11:57;4.03;;;3.03;;
21235;SDS011;10775;42.678;26.324;2022-10-16T12:16:56;5.38;;;3.30;;
21235;SDS011;10775;42.678;26.324;2022-10-16T12:19:25;5.45;;;2.63;;
21235;SDS011;10775;42.678;26.324;2022-10-16T12:21:57;4.72;;;3.05;;
21235;SDS011;10775;42.678;26.324;2022-10-16T12:24:37;4.90;;;3.42;;
21235;SDS011;10775;42.678;26.324;2022-10-16T12:27:17;4.97;;;3.35;;
21235;SDS011;10775;42.678;26.324;2022-10-16T12:30:00;5.20;;;3.22;;
21235;SDS011;10775;42.678;26.324;2022-10-16T12:32:37;6.10;;;3.15;;
21235;SDS011;10775;42.678;26.324;2022-10-16T12:35:05;4.03;;;2.88;;
21235;SDS011;10775;42.678;26.324;2022-10-16T12:37:43;6.97;;;2.80;;
21235;SDS011;10775;42.678;26.324;2022-10-16T12:40:29;3.78;;;2.40;;
21235;SDS011;10775;42.678;26.324;2022-10-16T12:42:58;4.55;;;2.83;;
21235;SDS011;10775;42.678;26.324;2022-10-16T12:45:26;5.43;;;2.75;;
21235;SDS011;10775;42.678;26.324;2022-10-16T12:48:00;5.40;;;2.80;;
21235;SDS011;10775;42.678;26.324;2022-10-16T12:50:34;6.93;;;3.17;;
21235;SDS011;10775;42.678;26.324;2022-10-16T12:53:04;5.13;;;3.00;;
21235;SDS011;10775;42.678;26.324;2022-10-16T12:55:47;3.67;;;2.40;;
21235;SDS011;10775;42.678;26.324;2022-10-16T12:58:38;4.25;;;2.25;;
21235;SDS011;10775;42.678;26.324;2022-10-16T13:01:17;4.18;;;2.90;;
21235;SDS011;10775;42.678;26.324;2022-10-16T13:09:40;5.45;;;3.17;;
21235;SDS011;10775;42.678;26.324;2022-10-16T13:15:35;6.13;;;2.90;;
21235;SDS011;10775;42.678;26.324;2022-10-16T13:21:43;5.03;;;2.90;;
21235;SDS011;10775;42.678;26.324;2022-10-16T13:30:10;4.60;;;2.80;;
21235;SDS011;10775;42.678;26.324;2022-10-16T13:32:44;4.63;;;2.40;;
21235;SDS011;10775;42.678;26.324;2022-10-16T13:35:21;4.53;;;2.35;;
21235;SDS011;10775;42.678;26.324;2022-10-16T13:38:04;4.72;;;3.10;;
21235;SDS011;10775;42.678;26.324;2022-10-16T13:40:47;5.63;;;3.67;;
21235;SDS011;10775;42.678;26.324;2022-10-16T13:43:32;5.15;;;2.53;;
21235;SDS011;10775;42.678;26.324;2022-10-16T13:46:10;4.15;;;3.10;;
21235;SDS011;10775;42.678;26.324;2022-10-16T13:48:39;5.10;;;3.22;;
21235;SDS011;10775;42.678;26.324;2022-10-16T13:51:10;5.95;;;3.35;;
21235;SDS011;10775;42.678;26.324;2022-10-16T13:53:42;7.18;;;4.50;;
21235;SDS011;10775;42.678;26.324;2022-10-16T13:56:13;4.85;;;2.95;;
21235;SDS011;10775;42.678;26.324;2022-10-16T13:58:41;5.18;;;2.72;;
21235;SDS011;10775;42.678;26.324;2022-10-16T14:01:23;4.00;;;3.00;;
21235;SDS011;10775;42.678;26.324;2022-10-16T14:03:52;6.75;;;3.15;;
21235;SDS011;10775;42.678;26.324;2022-10-16T14:06:21;5.50;;;2.83;;
21235;SDS011;10775;42.678;26.324;2022-10-16T14:08:54;5.57;;;2.70;;
21235;SDS011;10775;42.678;26.324;2022-10-16T14:11:24;4.40;;;3.15;;
21235;SDS011;10775;42.678;26.324;2022-10-16T14:13:50;4.60;;;3.08;;
21235;SDS011;10775;42.678;26.324;2022-10-16T14:16:18;7.35;;;3.90;;
21235;SDS011;10775;42.678;26.324;2022-10-16T14:18:49;5.30;;;3.73;;
21235;SDS011;10775;42.678;26.324;2022-10-16T14:21:27;5.15;;;2.92;;
21235;SDS011;10775;42.678;26.324;2022-10-16T14:23:53;5.47;;;2.53;;
21235;SDS011;10775;42.678;26.324;2022-10-16T14:26:22;4.47;;;2.70;;
21235;SDS011;10775;42.678;26.324;2022-10-16T14:29:01;5.18;;;3.28;;
21235;SDS011;10775;42.678;26.324;2022-10-16T14:31:36;4.25;;;2.33;;
21235;SDS011;10775;42.678;26.324;2022-10-16T14:34:04;4.70;;;3.00;;
21235;SDS011;10775;42.678;26.324;2022-10-16T14:36:51;5.45;;;2.97;;
21235;SDS011;10775;42.678;26.324;2022-10-16T14:39:18;4.20;;;2.72;;
21235;SDS011;10775;42.678;26.324;2022-10-16T14:41:48;6.82;;;2.53;;
21235;SDS011;10775;42.678;26.324;2022-10-16T14:44:17;6.53;;;2.92;;
21235;SDS011;10775;42.678;26.324;2022-10-16T14:46:43;6.57;;;3.15;;
21235;SDS011;10775;42.678;26.324;2022-10-16T14:51:36;4.47;;;2.40;;
21235;SDS011;10775;42.678;26.324;2022-10-16T14:54:08;3.63;;;3.00;;
21235;SDS011;10775;42.678;26.324;2022-10-16T14:56:41;5.55;;;3.08;;
21235;SDS011;10775;42.678;26.324;2022-10-16T14:59:19;4.45;;;3.28;;
21235;SDS011;10775;42.678;26.324;2022-10-16T15:01:55;5.65;;;3.45;;
21235;SDS011;10775;42.678;26.324;2022-10-16T15:04:22;4.05;;;2.63;;
21235;SDS011;10775;42.678;26.324;2022-10-16T15:06:54;4.97;;;2.92;;
21235;SDS011;10775;42.678;26.324;2022-10-16T15:09:20;5.32;;;3.25;;
21235;SDS011;10775;42.678;26.324;2022-10-16T15:11:49;4.03;;;3.47;;
21235;SDS011;10775;42.678;26.324;2022-10-16T15:14:15;3.97;;;3.13;;
21235;SDS011;10775;42.678;26.324;2022-10-16T15:16:40;4.32;;;3.10;;
21235;SDS011;10775;42.678;26.324;2022-10-16T15:19:06;4.07;;;3.15;;
21235;SDS011;10775;42.678;26.324;2022-10-16T15:21:32;6.60;;;3.90;;
21235;SDS011;10775;42.678;26.324;2022-10-16T15:23:58;5.07;;;3.72;;
21235;SDS011;10775;42.678;26.324;2022-10-16T15:26:28;6.38;;;3.88;;
21235;SDS011;10775;42.678;26.324;2022-10-16T15:28:54;5.45;;;3.20;;
21235;SDS011;10775;42.678;26.324;2022-10-16T15:31:20;7.40;;;4.32;;
21235;SDS011;10775;42.678;26.324;2022-10-16T15:33:52;5.03;;;3.85;;
21235;SDS011;10775;42.678;26.324;2022-10-16T15:36:24;6.18;;;3.88;;
21235;SDS011;10775;42.678;26.324;2022-10-16T15:38:51;5.93;;;3.97;;
21235;SDS011;10775;42.678;26.324;2022-10-16T15:41:19;6.88;;;4.30;;
21235;SDS011;10775;42.678;26.324;2022-10-16T15:43:45;6.88;;;3.60;;
21235;SDS011;10775;42.678;26.324;2022-10-16T15:46:13;8.32;;;4.88;;
21235;SDS011;10775;42.678;26.324;2022-10-16T15:48:40;9.80;;;3.95;;
21235;SDS011;10775;42.678;26.324;2022-10-16T15:51:07;7.72;;;4.63;;
21235;SDS011;10775;42.678;26.324;2022-10-16T15:53:33;9.45;;;5.38;;
21235;SDS011;10775;42.678;26.324;2022-10-16T15:56:06;7.30;;;4.50;;
21235;SDS011;10775;42.678;26.324;2022-10-16T15:58:33;4.45;;;2.80;;
21235;SDS011;10775;42.678;26.324;2022-10-16T16:01:02;5.38;;;3.83;;
21235;SDS011;10775;42.678;26.324;2022-10-16T16:03:29;5.87;;;3.30;;
21235;SDS011;10775;42.678;26.324;2022-10-16T16:05:57;4.97;;;3.78;;
21235;SDS011;10775;42.678;26.324;2022-10-16T16:08:33;4.07;;;2.90;;
21235;SDS011;10775;42.678;26.324;2022-10-16T16:11:02;6.60;;;3.22;;
21235;SDS011;10775;42.678;26.324;2022-10-16T16:13:32;5.97;;;4.20;;
21235;SDS011;10775;42.678;26.324;2022-10-16T16:15:58;6.68;;;3.97;;
21235;SDS011;10775;42.678;26.324;2022-10-16T16:18:24;8.02;;;4.70;;
21235;SDS011;10775;42.678;26.324;2022-10-16T16:20:51;9.40;;;6.18;;
21235;SDS011;10775;42.678;26.324;2022-10-16T16:23:18;7.25;;;3.80;;
21235;SDS011;10775;42.678;26.324;2022-10-16T16:25:45;6.32;;;4.40;;
21235;SDS011;10775;42.678;26.324;2022-10-16T16:28:30;13.98;;;6.57;;
21235;SDS011;10775;42.678;26.324;2022-10-16T16:31:17;12.88;;;7.03;;
21235;SDS011;10775;42.678;26.324;2022-10-16T16:33:43;8.40;;;5.18;;
21235;SDS011;10775;42.678;26.324;2022-10-16T16:36:18;7.20;;;5.15;;
21235;SDS011;10775;42.678;26.324;2022-10-16T16:38:45;13.85;;;7.10;;
21235;SDS011;10775;42.678;26.324;2022-10-16T16:41:15;7.05;;;4.60;;
21235;SDS011;10775;42.678;26.324;2022-10-16T16:43:43;5.25;;;3.45;;
21235;SDS011;10775;42.678;26.324;2022-10-16T16:46:11;10.52;;;7.55;;
21235;SDS011;10775;42.678;26.324;2022-10-16T16:48:38;8.20;;;5.03;;
21235;SDS011;10775;42.678;26.324;2022-10-16T16:51:07;10.57;;;6.67;;
21235;SDS011;10775;42.678;26.324;2022-10-16T16:53:35;7.05;;;4.25;;
21235;SDS011;10775;42.678;26.324;2022-10-16T16:56:02;12.32;;;6.82;;
21235;SDS011;10775;42.678;26.324;2022-10-16T16:58:30;8.32;;;5.20;;
21235;SDS011;10775;42.678;26.324;2022-10-16T17:00:56;7.50;;;4.57;;